sensor_id;sensor_type;location;lat;lon;timestamp;temperature;humidity
63017;DHT22;50274;45.640;11.756;2023-01-04T00:00:10;8.80;84.60
63017;DHT22;50274;45.640;11.756;2023-01-04T00:02:37;8.80;84.60
63017;DHT22;50274;45.640;11.756;2023-01-04T00:05:03;8.80;84.60
63017;DHT22;50274;45.640;11.756;2023-01-04T00:07:29;8.70;84.60
63017;DHT22;50274;45.640;11.756;2023-01-04T00:09:55;8.70;84.60
63017;DHT22;50274;45.640;11.756;2023-01-04T00:12:21;8.70;84.70
63017;DHT22;50274;45.640;11.756;2023-01-04T00:14:47;8.70;84.70
63017;DHT22;50274;45.640;11.756;2023-01-04T00:17:13;8.70;84.70
63017;DHT22;50274;45.640;11.756;2023-01-04T00:19:39;8.70;84.70
63017;DHT22;50274;45.640;11.756;2023-01-04T00:22:05;8.60;84.80
63017;DHT22;50274;45.640;11.756;2023-01-04T00:24:31;8.60;84.60
63017;DHT22;50274;45.640;11.756;2023-01-04T00:26:57;8.60;84.70
63017;DHT22;50274;45.640;11.756;2023-01-04T00:29:22;8.60;84.70
63017;DHT22;50274;45.640;11.756;2023-01-04T00:31:48;8.60;84.70
63017;DHT22;50274;45.640;11.756;2023-01-04T00:34:16;8.60;84.60
63017;DHT22;50274;45.640;11.756;2023-01-04T00:36:42;8.60;84.70
63017;DHT22;50274;45.640;11.756;2023-01-04T00:39:12;8.50;84.70
63017;DHT22;50274;45.640;11.756;2023-01-04T00:41:52;8.60;84.70
63017;DHT22;50274;45.640;11.756;2023-01-04T00:44:18;8.60;84.70
63017;DHT22;50274;45.640;11.756;2023-01-04T00:46:47;8.60;84.70
63017;DHT22;50274;45.640;11.756;2023-01-04T00:49:13;8.50;84.60
63017;DHT22;50274;45.640;11.756;2023-01-04T00:51:40;8.50;84.50
63017;DHT22;50274;45.640;11.756;2023-01-04T00:54:10;8.50;84.50
63017;DHT22;50274;45.640;11.756;2023-01-04T00:56:37;8.50;84.40
63017;DHT22;50274;45.640;11.756;2023-01-04T00:59:03;8.50;84.40
63017;DHT22;50274;45.640;11.756;2023-01-04T01:01:31;8.50;84.30
63017;DHT22;50274;45.640;11.756;2023-01-04T01:03:59;8.50;84.30
63017;DHT22;50274;45.640;11.756;2023-01-04T01:06:25;8.50;84.20
63017;DHT22;50274;45.640;11.756;2023-01-04T01:08:52;8.50;84.10
63017;DHT22;50274;45.640;11.756;2023-01-04T01:11:19;8.50;84.10
63017;DHT22;50274;45.640;11.756;2023-01-04T01:13:45;8.40;84.00
63017;DHT22;50274;45.640;11.756;2023-01-04T01:16:13;8.30;84.00
63017;DHT22;50274;45.640;11.756;2023-01-04T01:18:41;8.30;84.00
63017;DHT22;50274;45.640;11.756;2023-01-04T01:21:09;8.30;83.90
63017;DHT22;50274;45.640;11.756;2023-01-04T01:23:36;8.20;83.90
63017;DHT22;50274;45.640;11.756;2023-01-04T01:26:03;8.20;83.90
63017;DHT22;50274;45.640;11.756;2023-01-04T01:28:30;8.20;83.80
63017;DHT22;50274;45.640;11.756;2023-01-04T01:30:56;8.20;83.80
63017;DHT22;50274;45.640;11.756;2023-01-04T01:33:25;8.20;83.80
63017;DHT22;50274;45.640;11.756;2023-01-04T01:35:51;8.20;83.80
63017;DHT22;50274;45.640;11.756;2023-01-04T01:38:17;8.20;83.70
63017;DHT22;50274;45.640;11.756;2023-01-04T01:40:44;8.10;83.70
63017;DHT22;50274;45.640;11.756;2023-01-04T01:43:18;8.00;83.60
63017;DHT22;50274;45.640;11.756;2023-01-04T01:45:46;7.90;83.70
63017;DHT22;50274;45.640;11.756;2023-01-04T01:48:17;7.90;83.80
63017;DHT22;50274;45.640;11.756;2023-01-04T01:50:51;7.90;83.80
63017;DHT22;50274;45.640;11.756;2023-01-04T01:53:18;7.90;83.80
63017;DHT22;50274;45.640;11.756;2023-01-04T01:55:45;7.90;83.80
63017;DHT22;50274;45.640;11.756;2023-01-04T01:58:22;7.90;83.80
63017;DHT22;50274;45.640;11.756;2023-01-04T02:00:50;7.90;83.80
63017;DHT22;50274;45.640;11.756;2023-01-04T02:03:20;7.80;83.80
63017;DHT22;50274;45.640;11.756;2023-01-04T02:05:49;7.80;83.80
63017;DHT22;50274;45.640;11.756;2023-01-04T02:08:16;7.70;83.90
63017;DHT22;50274;45.640;11.756;2023-01-04T02:10:43;7.80;84.10
63017;DHT22;50274;45.640;11.756;2023-01-04T02:13:11;7.70;84.10
63017;DHT22;50274;45.640;11.756;2023-01-04T02:16:09;7.80;84.10
63017;DHT22;50274;45.640;11.756;2023-01-04T02:18:45;7.80;84.10
63017;DHT22;50274;45.640;11.756;2023-01-04T02:21:28;7.80;84.10
63017;DHT22;50274;45.640;11.756;2023-01-04T02:27:48;7.80;84.00
63017;DHT22;50274;45.640;11.756;2023-01-04T02:30:31;7.80;83.90
63017;DHT22;50274;45.640;11.756;2023-01-04T02:33:32;7.80;83.90
63017;DHT22;50274;45.640;11.756;2023-01-04T02:38:44;7.70;83.80
63017;DHT22;50274;45.640;11.756;2023-01-04T02:43:52;7.70;83.80
63017;DHT22;50274;45.640;11.756;2023-01-04T02:46:47;7.70;83.70
63017;DHT22;50274;45.640;11.756;2023-01-04T02:49:16;7.70;83.70
63017;DHT22;50274;45.640;11.756;2023-01-04T02:52:00;7.70;83.70
63017;DHT22;50274;45.640;11.756;2023-01-04T02:54:28;7.70;83.60
63017;DHT22;50274;45.640;11.756;2023-01-04T02:57:21;7.60;83.60
63017;DHT22;50274;45.640;11.756;2023-01-04T03:03:21;7.60;83.60
63017;DHT22;50274;45.640;11.756;2023-01-04T03:06:24;7.60;83.60
63017;DHT22;50274;45.640;11.756;2023-01-04T03:09:14;7.60;83.60
63017;DHT22;50274;45.640;11.756;2023-01-04T03:11:52;7.60;83.60
63017;DHT22;50274;45.640;11.756;2023-01-04T03:14:47;7.60;83.50
63017;DHT22;50274;45.640;11.756;2023-01-04T03:17:18;7.50;83.40
63017;DHT22;50274;45.640;11.756;2023-01-04T03:19:47;7.50;83.50
63017;DHT22;50274;45.640;11.756;2023-01-04T03:25:38;7.50;83.40
63017;DHT22;50274;45.640;11.756;2023-01-04T03:28:27;7.50;83.40
63017;DHT22;50274;45.640;11.756;2023-01-04T03:31:43;7.50;83.30
63017;DHT22;50274;45.640;11.756;2023-01-04T03:34:30;7.40;83.20
63017;DHT22;50274;45.640;11.756;2023-01-04T03:37:37;7.40;83.20
63017;DHT22;50274;45.640;11.756;2023-01-04T03:40:26;7.30;83.10
63017;DHT22;50274;45.640;11.756;2023-01-04T03:43:16;7.30;83.10
63017;DHT22;50274;45.640;11.756;2023-01-04T03:46:20;7.30;83.10
63017;DHT22;50274;45.640;11.756;2023-01-04T03:51:36;7.20;83.10
63017;DHT22;50274;45.640;11.756;2023-01-04T03:56:36;7.20;82.90
63017;DHT22;50274;45.640;11.756;2023-01-04T03:59:06;7.20;83.00
63017;DHT22;50274;45.640;11.756;2023-01-04T04:01:34;7.10;83.00
63017;DHT22;50274;45.640;11.756;2023-01-04T04:04:01;7.10;83.00
63017;DHT22;50274;45.640;11.756;2023-01-04T04:06:45;7.10;83.00
63017;DHT22;50274;45.640;11.756;2023-01-04T04:09:29;7.10;83.10
63017;DHT22;50274;45.640;11.756;2023-01-04T04:11:56;7.10;83.10
63017;DHT22;50274;45.640;11.756;2023-01-04T04:14:22;7.10;83.10
63017;DHT22;50274;45.640;11.756;2023-01-04T04:16:48;7.10;83.20
63017;DHT22;50274;45.640;11.756;2023-01-04T04:19:13;7.00;83.10
63017;DHT22;50274;45.640;11.756;2023-01-04T04:21:39;7.10;83.10
63017;DHT22;50274;45.640;11.756;2023-01-04T04:24:06;7.10;83.10
63017;DHT22;50274;45.640;11.756;2023-01-04T04:26:32;7.00;83.00
63017;DHT22;50274;45.640;11.756;2023-01-04T04:28:57;7.00;83.00
63017;DHT22;50274;45.640;11.756;2023-01-04T04:31:23;7.00;83.00
63017;DHT22;50274;45.640;11.756;2023-01-04T04:33:49;7.00;83.00
63017;DHT22;50274;45.640;11.756;2023-01-04T04:36:15;6.90;83.00
63017;DHT22;50274;45.640;11.756;2023-01-04T04:38:41;6.80;83.10
63017;DHT22;50274;45.640;11.756;2023-01-04T04:41:11;6.80;83.30
63017;DHT22;50274;45.640;11.756;2023-01-04T04:43:56;6.70;83.30
63017;DHT22;50274;45.640;11.756;2023-01-04T04:46:23;6.70;83.40
63017;DHT22;50274;45.640;11.756;2023-01-04T04:48:49;6.70;83.50
63017;DHT22;50274;45.640;11.756;2023-01-04T04:51:16;6.70;83.50
63017;DHT22;50274;45.640;11.756;2023-01-04T04:53:41;6.70;83.60
63017;DHT22;50274;45.640;11.756;2023-01-04T04:56:08;6.70;83.50
63017;DHT22;50274;45.640;11.756;2023-01-04T04:58:34;6.70;83.50
63017;DHT22;50274;45.640;11.756;2023-01-04T05:01:00;6.80;83.40
63017;DHT22;50274;45.640;11.756;2023-01-04T05:03:25;6.70;83.30
63017;DHT22;50274;45.640;11.756;2023-01-04T05:05:51;6.70;83.20
63017;DHT22;50274;45.640;11.756;2023-01-04T05:08:17;6.70;83.10
63017;DHT22;50274;45.640;11.756;2023-01-04T05:10:43;6.70;83.10
63017;DHT22;50274;45.640;11.756;2023-01-04T05:13:10;6.70;83.10
63017;DHT22;50274;45.640;11.756;2023-01-04T05:15:39;6.70;83.00
63017;DHT22;50274;45.640;11.756;2023-01-04T05:18:07;6.70;83.00
63017;DHT22;50274;45.640;11.756;2023-01-04T05:20:33;6.60;82.90
63017;DHT22;50274;45.640;11.756;2023-01-04T05:23:00;6.60;83.00
63017;DHT22;50274;45.640;11.756;2023-01-04T05:25:26;6.60;82.90
63017;DHT22;50274;45.640;11.756;2023-01-04T05:27:52;6.60;82.80
63017;DHT22;50274;45.640;11.756;2023-01-04T05:30:18;6.60;82.70
63017;DHT22;50274;45.640;11.756;2023-01-04T05:33:03;6.50;82.60
63017;DHT22;50274;45.640;11.756;2023-01-04T05:35:29;6.50;82.60
63017;DHT22;50274;45.640;11.756;2023-01-04T05:37:55;6.50;82.60
63017;DHT22;50274;45.640;11.756;2023-01-04T05:40:22;6.40;82.60
63017;DHT22;50274;45.640;11.756;2023-01-04T05:42:48;6.40;82.60
63017;DHT22;50274;45.640;11.756;2023-01-04T05:45:15;6.40;82.70
63017;DHT22;50274;45.640;11.756;2023-01-04T05:47:41;6.40;82.70
63017;DHT22;50274;45.640;11.756;2023-01-04T05:50:08;6.40;82.60
63017;DHT22;50274;45.640;11.756;2023-01-04T05:52:35;6.40;82.60
63017;DHT22;50274;45.640;11.756;2023-01-04T05:55:01;6.40;82.60
63017;DHT22;50274;45.640;11.756;2023-01-04T05:57:27;6.40;82.60
63017;DHT22;50274;45.640;11.756;2023-01-04T05:59:52;6.30;82.50
63017;DHT22;50274;45.640;11.756;2023-01-04T06:02:21;6.30;82.50
63017;DHT22;50274;45.640;11.756;2023-01-04T06:04:47;6.30;82.40
63017;DHT22;50274;45.640;11.756;2023-01-04T06:07:14;6.30;82.40
63017;DHT22;50274;45.640;11.756;2023-01-04T06:09:40;6.20;82.20
63017;DHT22;50274;45.640;11.756;2023-01-04T06:12:07;6.10;82.40
63017;DHT22;50274;45.640;11.756;2023-01-04T06:14:33;6.10;82.40
63017;DHT22;50274;45.640;11.756;2023-01-04T06:16:59;6.10;82.50
63017;DHT22;50274;45.640;11.756;2023-01-04T06:19:25;6.00;82.50
63017;DHT22;50274;45.640;11.756;2023-01-04T06:21:51;6.00;82.60
63017;DHT22;50274;45.640;11.756;2023-01-04T06:24:17;6.00;82.50
63017;DHT22;50274;45.640;11.756;2023-01-04T06:26:44;6.00;82.40
63017;DHT22;50274;45.640;11.756;2023-01-04T06:29:09;6.00;82.40
63017;DHT22;50274;45.640;11.756;2023-01-04T06:31:35;6.00;82.40
63017;DHT22;50274;45.640;11.756;2023-01-04T06:34:01;6.00;82.40
63017;DHT22;50274;45.640;11.756;2023-01-04T06:36:27;6.00;82.40
63017;DHT22;50274;45.640;11.756;2023-01-04T06:38:59;6.00;82.40
63017;DHT22;50274;45.640;11.756;2023-01-04T06:41:25;6.00;82.40
63017;DHT22;50274;45.640;11.756;2023-01-04T06:43:52;6.00;82.40
63017;DHT22;50274;45.640;11.756;2023-01-04T06:46:18;6.00;82.40
63017;DHT22;50274;45.640;11.756;2023-01-04T06:48:44;6.00;82.40
63017;DHT22;50274;45.640;11.756;2023-01-04T06:51:10;6.00;82.40
63017;DHT22;50274;45.640;11.756;2023-01-04T06:53:36;6.00;82.40
63017;DHT22;50274;45.640;11.756;2023-01-04T06:56:02;5.90;82.30
63017;DHT22;50274;45.640;11.756;2023-01-04T06:58:28;6.00;82.30
63017;DHT22;50274;45.640;11.756;2023-01-04T07:00:54;6.00;82.40
63017;DHT22;50274;45.640;11.756;2023-01-04T07:03:20;5.90;82.30
63017;DHT22;50274;45.640;11.756;2023-01-04T07:05:46;5.90;82.40
63017;DHT22;50274;45.640;11.756;2023-01-04T07:08:13;5.90;82.40
63017;DHT22;50274;45.640;11.756;2023-01-04T07:10:40;5.90;82.40
63017;DHT22;50274;45.640;11.756;2023-01-04T07:13:07;5.90;82.50
63017;DHT22;50274;45.640;11.756;2023-01-04T07:15:33;5.90;82.50
63017;DHT22;50274;45.640;11.756;2023-01-04T07:17:59;5.90;82.40
63017;DHT22;50274;45.640;11.756;2023-01-04T07:20:25;5.90;82.40
63017;DHT22;50274;45.640;11.756;2023-01-04T07:22:51;5.90;82.40
63017;DHT22;50274;45.640;11.756;2023-01-04T07:25:17;5.90;82.40
63017;DHT22;50274;45.640;11.756;2023-01-04T07:27:43;5.90;82.40
63017;DHT22;50274;45.640;11.756;2023-01-04T07:30:09;5.90;82.40
63017;DHT22;50274;45.640;11.756;2023-01-04T07:32:36;5.90;82.40
63017;DHT22;50274;45.640;11.756;2023-01-04T07:35:02;5.90;82.30
63017;DHT22;50274;45.640;11.756;2023-01-04T07:37:28;5.90;82.30
63017;DHT22;50274;45.640;11.756;2023-01-04T07:39:53;5.90;82.40
63017;DHT22;50274;45.640;11.756;2023-01-04T07:42:19;5.80;82.50
63017;DHT22;50274;45.640;11.756;2023-01-04T07:44:46;5.80;82.50
63017;DHT22;50274;45.640;11.756;2023-01-04T07:47:12;5.90;82.60
63017;DHT22;50274;45.640;11.756;2023-01-04T07:49:38;5.90;82.60
63017;DHT22;50274;45.640;11.756;2023-01-04T07:52:03;5.90;82.50
63017;DHT22;50274;45.640;11.756;2023-01-04T07:54:29;5.90;82.60
63017;DHT22;50274;45.640;11.756;2023-01-04T07:56:55;5.90;82.70
63017;DHT22;50274;45.640;11.756;2023-01-04T07:59:21;6.00;82.70
63017;DHT22;50274;45.640;11.756;2023-01-04T08:01:48;6.00;82.70
63017;DHT22;50274;45.640;11.756;2023-01-04T08:04:15;6.00;82.70
63017;DHT22;50274;45.640;11.756;2023-01-04T08:06:43;6.10;82.80
63017;DHT22;50274;45.640;11.756;2023-01-04T08:09:11;6.10;82.80
63017;DHT22;50274;45.640;11.756;2023-01-04T08:11:37;6.20;83.00
63017;DHT22;50274;45.640;11.756;2023-01-04T08:14:04;6.30;83.00
63017;DHT22;50274;45.640;11.756;2023-01-04T08:16:32;6.40;83.00
63017;DHT22;50274;45.640;11.756;2023-01-04T08:19:03;6.50;83.10
63017;DHT22;50274;45.640;11.756;2023-01-04T08:21:31;6.60;83.10
63017;DHT22;50274;45.640;11.756;2023-01-04T08:23:59;6.70;83.10
63017;DHT22;50274;45.640;11.756;2023-01-04T08:26:25;6.70;83.20
63017;DHT22;50274;45.640;11.756;2023-01-04T08:28:51;6.80;83.30
63017;DHT22;50274;45.640;11.756;2023-01-04T08:31:20;6.90;83.40
63017;DHT22;50274;45.640;11.756;2023-01-04T08:33:48;7.00;83.50
63017;DHT22;50274;45.640;11.756;2023-01-04T08:36:22;7.10;83.50
63017;DHT22;50274;45.640;11.756;2023-01-04T08:38:50;7.20;83.60
63017;DHT22;50274;45.640;11.756;2023-01-04T08:41:17;7.30;83.50
63017;DHT22;50274;45.640;11.756;2023-01-04T08:43:43;7.40;83.50
63017;DHT22;50274;45.640;11.756;2023-01-04T08:46:10;7.50;83.50
63017;DHT22;50274;45.640;11.756;2023-01-04T08:48:37;7.60;83.40
63017;DHT22;50274;45.640;11.756;2023-01-04T08:51:07;7.70;83.40
63017;DHT22;50274;45.640;11.756;2023-01-04T08:53:34;7.80;83.30
63017;DHT22;50274;45.640;11.756;2023-01-04T08:56:00;8.00;83.20
63017;DHT22;50274;45.640;11.756;2023-01-04T08:58:28;8.00;83.20
63017;DHT22;50274;45.640;11.756;2023-01-04T09:01:08;8.10;83.00
63017;DHT22;50274;45.640;11.756;2023-01-04T09:03:36;8.30;83.00
63017;DHT22;50274;45.640;11.756;2023-01-04T09:06:11;8.40;83.00
63017;DHT22;50274;45.640;11.756;2023-01-04T09:08:37;8.50;82.90
63017;DHT22;50274;45.640;11.756;2023-01-04T09:11:05;8.60;82.90
63017;DHT22;50274;45.640;11.756;2023-01-04T09:13:32;8.70;82.70
63017;DHT22;50274;45.640;11.756;2023-01-04T09:16:07;8.80;82.70
63017;DHT22;50274;45.640;11.756;2023-01-04T09:18:33;8.90;82.50
63017;DHT22;50274;45.640;11.756;2023-01-04T09:21:04;9.10;82.50
63017;DHT22;50274;45.640;11.756;2023-01-04T09:23:30;9.20;82.40
63017;DHT22;50274;45.640;11.756;2023-01-04T09:25:56;9.30;82.10
63017;DHT22;50274;45.640;11.756;2023-01-04T09:28:21;9.40;82.00
63017;DHT22;50274;45.640;11.756;2023-01-04T09:30:47;9.60;81.90
63017;DHT22;50274;45.640;11.756;2023-01-04T09:33:13;9.70;81.70
63017;DHT22;50274;45.640;11.756;2023-01-04T09:35:39;9.90;81.50
63017;DHT22;50274;45.640;11.756;2023-01-04T09:38:04;10.00;81.30
63017;DHT22;50274;45.640;11.756;2023-01-04T09:43:18;10.30;81.00
63017;DHT22;50274;45.640;11.756;2023-01-04T09:45:46;10.50;80.80
63017;DHT22;50274;45.640;11.756;2023-01-04T09:48:17;10.70;80.60
63017;DHT22;50274;45.640;11.756;2023-01-04T09:51:00;10.70;80.40
63017;DHT22;50274;45.640;11.756;2023-01-04T09:53:42;10.90;80.20
63017;DHT22;50274;45.640;11.756;2023-01-04T09:56:22;11.10;79.60
63017;DHT22;50274;45.640;11.756;2023-01-04T09:58:49;11.20;79.40
63017;DHT22;50274;45.640;11.756;2023-01-04T10:01:23;11.40;79.10
63017;DHT22;50274;45.640;11.756;2023-01-04T10:04:02;11.50;78.80
63017;DHT22;50274;45.640;11.756;2023-01-04T10:06:33;11.70;78.40
63017;DHT22;50274;45.640;11.756;2023-01-04T10:09:03;11.80;77.90
63017;DHT22;50274;45.640;11.756;2023-01-04T10:12:17;12.00;77.70
63017;DHT22;50274;45.640;11.756;2023-01-04T10:14:44;12.10;77.50
63017;DHT22;50274;45.640;11.756;2023-01-04T10:26:00;12.90;74.70
63017;DHT22;50274;45.640;11.756;2023-01-04T10:29:18;13.00;74.50
63017;DHT22;50274;45.640;11.756;2023-01-04T10:36:46;13.60;72.90
63017;DHT22;50274;45.640;11.756;2023-01-04T10:39:18;13.70;72.40
63017;DHT22;50274;45.640;11.756;2023-01-04T10:44:50;14.00;70.50
63017;DHT22;50274;45.640;11.756;2023-01-04T10:49:55;14.40;69.50
63017;DHT22;50274;45.640;11.756;2023-01-04T10:52:28;14.60;69.40
63017;DHT22;50274;45.640;11.756;2023-01-04T11:00:47;15.10;68.00
63017;DHT22;50274;45.640;11.756;2023-01-04T11:03:27;15.30;67.60
63017;DHT22;50274;45.640;11.756;2023-01-04T11:06:18;15.50;66.80
63017;DHT22;50274;45.640;11.756;2023-01-04T11:08:49;15.60;66.70
63017;DHT22;50274;45.640;11.756;2023-01-04T11:13:49;15.80;64.50
63017;DHT22;50274;45.640;11.756;2023-01-04T11:16:15;15.90;64.70
63017;DHT22;50274;45.640;11.756;2023-01-04T11:18:42;15.90;65.00
63017;DHT22;50274;45.640;11.756;2023-01-04T11:21:11;16.00;64.40
63017;DHT22;50274;45.640;11.756;2023-01-04T11:23:37;16.10;64.60
63017;DHT22;50274;45.640;11.756;2023-01-04T11:26:19;16.30;64.70
63017;DHT22;50274;45.640;11.756;2023-01-04T11:28:52;16.40;64.50
63017;DHT22;50274;45.640;11.756;2023-01-04T11:31:49;16.60;64.10
63017;DHT22;50274;45.640;11.756;2023-01-04T11:34:15;16.70;63.30
63017;DHT22;50274;45.640;11.756;2023-01-04T11:36:43;16.80;63.30
63017;DHT22;50274;45.640;11.756;2023-01-04T11:39:21;16.90;62.90
63017;DHT22;50274;45.640;11.756;2023-01-04T11:41:57;17.00;62.20
63017;DHT22;50274;45.640;11.756;2023-01-04T11:44:24;17.10;62.10
63017;DHT22;50274;45.640;11.756;2023-01-04T11:47:18;17.20;61.90
63017;DHT22;50274;45.640;11.756;2023-01-04T11:49:45;17.30;61.30
63017;DHT22;50274;45.640;11.756;2023-01-04T11:54:52;17.40;61.00
63017;DHT22;50274;45.640;11.756;2023-01-04T11:57:18;17.50;60.90
63017;DHT22;50274;45.640;11.756;2023-01-04T11:59:50;17.40;59.40
63017;DHT22;50274;45.640;11.756;2023-01-04T12:02:31;17.40;59.80
63017;DHT22;50274;45.640;11.756;2023-01-04T12:04:57;17.50;59.50
63017;DHT22;50274;45.640;11.756;2023-01-04T12:07:30;17.50;59.90
63017;DHT22;50274;45.640;11.756;2023-01-04T12:10:05;17.60;59.20
63017;DHT22;50274;45.640;11.756;2023-01-04T12:12:37;17.50;58.60
63017;DHT22;50274;45.640;11.756;2023-01-04T12:15:09;17.50;59.50
63017;DHT22;50274;45.640;11.756;2023-01-04T12:20:15;17.60;59.10
63017;DHT22;50274;45.640;11.756;2023-01-04T12:22:41;17.60;59.40
63017;DHT22;50274;45.640;11.756;2023-01-04T12:27:51;17.60;60.30
63017;DHT22;50274;45.640;11.756;2023-01-04T12:30:42;17.50;59.50
63017;DHT22;50274;45.640;11.756;2023-01-04T12:33:41;17.40;59.90
63017;DHT22;50274;45.640;11.756;2023-01-04T12:36:14;17.40;60.50
63017;DHT22;50274;45.640;11.756;2023-01-04T12:41:20;17.60;60.90
63017;DHT22;50274;45.640;11.756;2023-01-04T12:43:48;17.70;60.60
63017;DHT22;50274;45.640;11.756;2023-01-04T12:54:50;17.70;60.40
63017;DHT22;50274;45.640;11.756;2023-01-04T13:00:02;17.70;60.10
63017;DHT22;50274;45.640;11.756;2023-01-04T13:02:31;17.60;60.40
63017;DHT22;50274;45.640;11.756;2023-01-04T13:05:02;17.60;60.60
63017;DHT22;50274;45.640;11.756;2023-01-04T13:19:08;17.30;60.80
63017;DHT22;50274;45.640;11.756;2023-01-04T13:21:40;17.20;61.50
63017;DHT22;50274;45.640;11.756;2023-01-04T13:24:32;17.10;62.20
63017;DHT22;50274;45.640;11.756;2023-01-04T13:29:41;16.80;63.20
63017;DHT22;50274;45.640;11.756;2023-01-04T13:32:24;16.60;63.90
63017;DHT22;50274;45.640;11.756;2023-01-04T13:37:35;16.10;64.80
63017;DHT22;50274;45.640;11.756;2023-01-04T13:40:21;16.00;65.40
63017;DHT22;50274;45.640;11.756;2023-01-04T13:48:08;15.20;67.40
63017;DHT22;50274;45.640;11.756;2023-01-04T13:50:37;15.00;68.10
63017;DHT22;50274;45.640;11.756;2023-01-04T13:53:05;14.70;68.90
63017;DHT22;50274;45.640;11.756;2023-01-04T13:55:33;14.40;69.80
63017;DHT22;50274;45.640;11.756;2023-01-04T13:58:14;14.10;70.80
63017;DHT22;50274;45.640;11.756;2023-01-04T14:00:49;13.80;71.50
63017;DHT22;50274;45.640;11.756;2023-01-04T14:03:25;13.60;72.60
63017;DHT22;50274;45.640;11.756;2023-01-04T14:05:55;13.40;73.50
63017;DHT22;50274;45.640;11.756;2023-01-04T14:08:33;13.10;74.10
63017;DHT22;50274;45.640;11.756;2023-01-04T14:11:00;12.90;74.80
63017;DHT22;50274;45.640;11.756;2023-01-04T14:13:27;12.80;75.70
63017;DHT22;50274;45.640;11.756;2023-01-04T14:16:12;12.60;76.50
63017;DHT22;50274;45.640;11.756;2023-01-04T14:18:38;12.50;76.80
63017;DHT22;50274;45.640;11.756;2023-01-04T14:21:12;12.40;77.10
63017;DHT22;50274;45.640;11.756;2023-01-04T14:23:38;12.30;77.60
63017;DHT22;50274;45.640;11.756;2023-01-04T14:26:04;12.20;77.90
63017;DHT22;50274;45.640;11.756;2023-01-04T14:28:33;12.20;78.70
63017;DHT22;50274;45.640;11.756;2023-01-04T14:38:39;11.90;79.40
63017;DHT22;50274;45.640;11.756;2023-01-04T14:41:22;12.00;79.80
63017;DHT22;50274;45.640;11.756;2023-01-04T14:43:51;11.90;79.90
63017;DHT22;50274;45.640;11.756;2023-01-04T14:46:21;11.90;80.10
63017;DHT22;50274;45.640;11.756;2023-01-04T14:48:47;11.80;80.00
63017;DHT22;50274;45.640;11.756;2023-01-04T14:51:16;11.80;80.40
63017;DHT22;50274;45.640;11.756;2023-01-04T14:53:43;11.80;80.60
63017;DHT22;50274;45.640;11.756;2023-01-04T14:56:12;11.70;80.40
63017;DHT22;50274;45.640;11.756;2023-01-04T14:58:38;11.70;80.60
63017;DHT22;50274;45.640;11.756;2023-01-04T15:01:04;11.70;80.80
63017;DHT22;50274;45.640;11.756;2023-01-04T15:03:30;11.60;81.00
63017;DHT22;50274;45.640;11.756;2023-01-04T15:05:55;11.60;80.90
63017;DHT22;50274;45.640;11.756;2023-01-04T15:08:21;11.50;80.90
63017;DHT22;50274;45.640;11.756;2023-01-04T15:10:47;11.60;81.10
63017;DHT22;50274;45.640;11.756;2023-01-04T15:13:14;11.50;81.10
63017;DHT22;50274;45.640;11.756;2023-01-04T15:15:41;11.50;81.10
63017;DHT22;50274;45.640;11.756;2023-01-04T15:18:07;11.60;81.20
63017;DHT22;50274;45.640;11.756;2023-01-04T15:20:33;11.50;81.20
63017;DHT22;50274;45.640;11.756;2023-01-04T15:22:59;11.50;81.20
63017;DHT22;50274;45.640;11.756;2023-01-04T15:25:24;11.60;81.30
63017;DHT22;50274;45.640;11.756;2023-01-04T15:27:52;11.50;81.20
63017;DHT22;50274;45.640;11.756;2023-01-04T15:30:18;11.50;81.30
63017;DHT22;50274;45.640;11.756;2023-01-04T15:32:44;11.50;81.40
63017;DHT22;50274;45.640;11.756;2023-01-04T15:35:10;11.50;81.50
63017;DHT22;50274;45.640;11.756;2023-01-04T15:37:40;11.50;81.40
63017;DHT22;50274;45.640;11.756;2023-01-04T15:40:07;11.50;81.40
63017;DHT22;50274;45.640;11.756;2023-01-04T15:42:32;11.50;81.40
63017;DHT22;50274;45.640;11.756;2023-01-04T15:45:16;11.50;81.40
63017;DHT22;50274;45.640;11.756;2023-01-04T15:47:42;11.50;81.40
63017;DHT22;50274;45.640;11.756;2023-01-04T15:50:08;11.50;81.50
63017;DHT22;50274;45.640;11.756;2023-01-04T15:52:34;11.40;81.50
63017;DHT22;50274;45.640;11.756;2023-01-04T15:55:00;11.50;81.50
63017;DHT22;50274;45.640;11.756;2023-01-04T15:57:25;11.50;81.60
63017;DHT22;50274;45.640;11.756;2023-01-04T15:59:51;11.40;81.50
63017;DHT22;50274;45.640;11.756;2023-01-04T16:02:17;11.40;81.60
63017;DHT22;50274;45.640;11.756;2023-01-04T16:04:43;11.30;81.60
63017;DHT22;50274;45.640;11.756;2023-01-04T16:07:10;11.30;81.70
63017;DHT22;50274;45.640;11.756;2023-01-04T16:09:36;11.20;81.80
63017;DHT22;50274;45.640;11.756;2023-01-04T16:12:03;11.20;81.90
63017;DHT22;50274;45.640;11.756;2023-01-04T16:14:47;11.20;82.00
63017;DHT22;50274;45.640;11.756;2023-01-04T16:17:13;11.10;82.00
63017;DHT22;50274;45.640;11.756;2023-01-04T16:19:39;11.10;82.00
63017;DHT22;50274;45.640;11.756;2023-01-04T16:22:04;11.10;82.00
63017;DHT22;50274;45.640;11.756;2023-01-04T16:24:30;11.10;82.10
63017;DHT22;50274;45.640;11.756;2023-01-04T16:26:56;11.10;82.10
63017;DHT22;50274;45.640;11.756;2023-01-04T16:29:22;11.10;82.10
63017;DHT22;50274;45.640;11.756;2023-01-04T16:31:49;11.00;82.10
63017;DHT22;50274;45.640;11.756;2023-01-04T16:34:15;11.00;82.10
63017;DHT22;50274;45.640;11.756;2023-01-04T16:36:41;11.00;82.10
63017;DHT22;50274;45.640;11.756;2023-01-04T16:39:07;11.00;82.10
63017;DHT22;50274;45.640;11.756;2023-01-04T16:41:33;11.00;82.10
63017;DHT22;50274;45.640;11.756;2023-01-04T16:44:00;11.00;82.10
63017;DHT22;50274;45.640;11.756;2023-01-04T16:46:33;11.00;82.10
63017;DHT22;50274;45.640;11.756;2023-01-04T16:49:04;10.90;82.00
63017;DHT22;50274;45.640;11.756;2023-01-04T16:51:32;10.90;82.00
63017;DHT22;50274;45.640;11.756;2023-01-04T16:54:00;10.80;82.00
63017;DHT22;50274;45.640;11.756;2023-01-04T16:56:27;10.80;82.00
63017;DHT22;50274;45.640;11.756;2023-01-04T16:58:53;10.80;82.00
63017;DHT22;50274;45.640;11.756;2023-01-04T17:01:24;10.70;82.00
63017;DHT22;50274;45.640;11.756;2023-01-04T17:03:54;10.70;82.00
63017;DHT22;50274;45.640;11.756;2023-01-04T17:06:25;10.70;82.00
63017;DHT22;50274;45.640;11.756;2023-01-04T17:08:53;10.60;82.00
63017;DHT22;50274;45.640;11.756;2023-01-04T17:11:24;10.60;82.10
63017;DHT22;50274;45.640;11.756;2023-01-04T17:13:50;10.60;82.10
63017;DHT22;50274;45.640;11.756;2023-01-04T17:16:16;10.50;82.00
63017;DHT22;50274;45.640;11.756;2023-01-04T17:18:42;10.50;82.00
63017;DHT22;50274;45.640;11.756;2023-01-04T17:21:11;10.50;82.00
63017;DHT22;50274;45.640;11.756;2023-01-04T17:23:41;10.40;82.00
63017;DHT22;50274;45.640;11.756;2023-01-04T17:26:10;10.40;82.00